createdAt,value
2022-10-02T00:00:16.968Z,15.93
2022-10-02T00:00:55.413Z,15.85
2022-10-02T00:01:33.767Z,15.78
2022-10-02T00:02:16.304Z,15.72
2022-10-02T00:02:54.431Z,15.70
2022-10-02T00:03:32.405Z,15.71
2022-10-02T00:04:08.862Z,15.70
2022-10-02T00:04:47.866Z,15.74
2022-10-02T00:05:24.530Z,15.76
2022-10-02T00:06:06.617Z,15.78
2022-10-02T00:06:44.673Z,15.81
2022-10-02T00:07:22.283Z,15.85
2022-10-02T00:08:02.279Z,15.88
2022-10-02T00:08:39.157Z,15.88
2022-10-02T00:09:22.479Z,15.91
2022-10-02T00:10:00.194Z,15.91
2022-10-02T00:10:36.233Z,15.92
2022-10-02T00:11:15.693Z,15.94
2022-10-02T00:11:50.888Z,15.94
2022-10-02T00:12:29.192Z,15.95
2022-10-02T00:13:05.023Z,15.97
2022-10-02T00:13:41.523Z,15.99
2022-10-02T00:14:20.733Z,16.02
2022-10-02T00:14:58.225Z,16.03
2022-10-02T00:15:37.431Z,16.05
2022-10-02T00:16:19.906Z,16.04
2022-10-02T00:16:55.710Z,16.05
2022-10-02T00:17:36.229Z,16.06
2022-10-02T00:18:12.715Z,16.08
2022-10-02T00:18:48.043Z,16.09
2022-10-02T00:19:23.109Z,16.11
2022-10-02T00:19:56.300Z,16.11
2022-10-02T00:20:38.115Z,16.10
2022-10-02T00:21:23.506Z,16.08
2022-10-02T00:22:10.948Z,16.05
2022-10-02T00:22:53.902Z,16.04
2022-10-02T00:23:32.668Z,16.02
2022-10-02T00:24:08.086Z,16.01
2022-10-02T00:24:51.091Z,16.02
2022-10-02T00:25:29.166Z,15.99
2022-10-02T00:26:06.610Z,15.99
2022-10-02T00:26:46.749Z,15.99
2022-10-02T00:27:38.935Z,15.95
2022-10-02T00:28:22.689Z,15.95
2022-10-02T00:29:05.879Z,15.94
2022-10-02T00:29:46.202Z,15.93
2022-10-02T00:30:21.459Z,15.92
2022-10-02T00:31:24.293Z,15.91
2022-10-02T00:32:19.770Z,15.90
2022-10-02T00:33:05.049Z,15.90
2022-10-02T00:33:51.423Z,15.90
2022-10-02T00:34:33.899Z,15.91
2022-10-02T00:35:43.595Z,15.89
2022-10-02T00:36:27.784Z,15.87
2022-10-02T00:37:09.622Z,15.89
2022-10-02T00:37:47.016Z,15.92
2022-10-02T00:38:33.567Z,15.94
2022-10-02T00:39:19.578Z,15.93
2022-10-02T00:40:03.675Z,15.94
2022-10-02T00:41:04.301Z,15.92
2022-10-02T00:42:06.562Z,15.89
2022-10-02T00:42:58.582Z,15.88
2022-10-02T00:43:39.229Z,15.88
2022-10-02T00:44:24.105Z,15.89
2022-10-02T00:45:21.803Z,15.90
2022-10-02T00:46:31.608Z,15.84
2022-10-02T00:47:15.846Z,15.85
2022-10-02T00:47:54.939Z,15.86
2022-10-02T00:48:47.308Z,15.85
2022-10-02T00:49:35.907Z,15.85
2022-10-02T00:50:24.514Z,15.84
2022-10-02T00:51:09.701Z,15.83
2022-10-02T00:51:52.841Z,15.85
2022-10-02T00:52:44.095Z,15.85
2022-10-02T00:53:29.786Z,15.85
2022-10-02T00:54:18.323Z,15.85
2022-10-02T00:55:16.314Z,15.84
2022-10-02T00:56:11.858Z,15.85
2022-10-02T00:56:53.244Z,15.86
2022-10-02T00:57:41.854Z,15.87
2022-10-02T00:58:31.550Z,15.87
2022-10-02T00:59:38.628Z,15.86
2022-10-02T01:00:13.734Z,15.84
2022-10-02T01:00:55.185Z,15.86
2022-10-02T01:01:38.020Z,15.87
2022-10-02T01:02:14.145Z,15.86
2022-10-02T01:03:09.074Z,15.86
2022-10-02T01:03:45.030Z,15.84
2022-10-02T01:04:25.267Z,15.85
2022-10-02T01:04:58.883Z,15.83
2022-10-02T01:05:33.873Z,15.85
2022-10-02T01:06:06.681Z,15.85
2022-10-02T01:06:38.978Z,15.86
2022-10-02T01:07:15.795Z,15.86
2022-10-02T01:07:51.612Z,15.85
2022-10-02T01:08:23.682Z,15.84
2022-10-02T01:08:58.785Z,15.85
2022-10-02T01:09:31.549Z,15.84
2022-10-02T01:10:07.637Z,15.84
2022-10-02T01:10:42.830Z,15.83
2022-10-02T01:11:14.951Z,15.82
2022-10-02T01:11:47.019Z,15.83
2022-10-02T01:12:21.681Z,15.83
2022-10-02T01:12:55.266Z,15.83
2022-10-02T01:13:27.566Z,15.82
2022-10-02T01:14:02.251Z,15.82
2022-10-02T01:14:35.789Z,15.80
2022-10-02T01:15:12.482Z,15.80
2022-10-02T01:15:52.983Z,15.78
2022-10-02T01:16:25.217Z,15.76
2022-10-02T01:16:57.440Z,15.76
2022-10-02T01:17:35.996Z,15.78
2022-10-02T01:18:10.313Z,15.76
2022-10-02T01:18:48.179Z,15.76
2022-10-02T01:19:29.281Z,15.74
2022-10-02T01:20:04.984Z,15.74
2022-10-02T01:20:42.388Z,15.75
2022-10-02T01:21:21.693Z,15.74
2022-10-02T01:21:59.292Z,15.75
2022-10-02T01:22:40.777Z,15.74
2022-10-02T01:23:20.610Z,15.74
2022-10-02T01:24:03.350Z,15.73
2022-10-02T01:24:46.660Z,15.73
2022-10-02T01:25:18.778Z,15.72
2022-10-02T01:25:53.982Z,15.72
2022-10-02T01:26:26.130Z,15.73
2022-10-02T01:26:58.794Z,15.74
2022-10-02T01:27:35.450Z,15.75
2022-10-02T01:28:14.007Z,15.75
2022-10-02T01:28:46.315Z,15.74
2022-10-02T01:29:18.415Z,15.75
2022-10-02T01:29:57.330Z,15.74
2022-10-02T01:30:31.618Z,15.72
2022-10-02T01:31:11.189Z,15.73
2022-10-02T01:31:43.591Z,15.71
2022-10-02T01:32:17.062Z,15.70
2022-10-02T01:32:54.692Z,15.69
2022-10-02T01:33:26.838Z,15.70
2022-10-02T01:34:00.030Z,15.70
2022-10-02T01:34:34.995Z,15.68
2022-10-02T01:35:08.346Z,15.69
2022-10-02T01:35:40.751Z,15.69
2022-10-02T01:36:17.831Z,15.67
2022-10-02T01:36:50.084Z,15.68
2022-10-02T01:37:24.613Z,15.69
2022-10-02T01:37:59.341Z,15.66
2022-10-02T01:38:31.798Z,15.67
2022-10-02T01:39:04.199Z,15.69
2022-10-02T01:39:39.898Z,15.67
2022-10-02T01:40:24.919Z,15.63
2022-10-02T01:40:59.795Z,15.61
2022-10-02T01:41:35.359Z,15.62
2022-10-02T01:42:07.503Z,15.61
2022-10-02T01:42:43.014Z,15.60
2022-10-02T01:43:19.459Z,15.61
2022-10-02T01:43:58.446Z,15.61
2022-10-02T01:44:30.919Z,15.60
2022-10-02T01:45:04.951Z,15.60
2022-10-02T01:45:56.693Z,15.57
2022-10-02T01:46:33.187Z,15.56
2022-10-02T01:47:11.775Z,15.56
2022-10-02T01:47:52.009Z,15.55
2022-10-02T01:48:38.748Z,15.55
2022-10-02T01:49:34.710Z,15.52
2022-10-02T01:50:17.714Z,15.51
2022-10-02T01:51:04.070Z,15.49
2022-10-02T01:51:56.995Z,15.46
2022-10-02T01:52:43.487Z,15.44
2022-10-02T01:53:26.749Z,15.43
2022-10-02T01:54:10.642Z,15.41
2022-10-02T01:54:57.901Z,15.41
2022-10-02T01:55:43.513Z,15.41
2022-10-02T01:56:21.960Z,15.43
2022-10-02T01:57:08.602Z,15.44
2022-10-02T01:57:52.995Z,15.45
2022-10-02T01:58:36.422Z,15.45
2022-10-02T01:59:20.617Z,15.46
2022-10-02T02:00:06.014Z,15.46
2022-10-02T02:01:00.460Z,15.43
2022-10-02T02:01:44.185Z,15.42
2022-10-02T02:02:29.142Z,15.42
2022-10-02T02:03:13.492Z,15.41
2022-10-02T02:03:53.653Z,15.41
2022-10-02T02:04:32.404Z,15.40
2022-10-02T02:05:10.485Z,15.39
2022-10-02T02:05:48.143Z,15.39
2022-10-02T02:06:32.816Z,15.39
2022-10-02T02:07:14.381Z,15.38
2022-10-02T02:07:51.144Z,15.40
2022-10-02T02:08:32.670Z,15.40
2022-10-02T02:09:09.919Z,15.40
2022-10-02T02:09:49.180Z,15.41
2022-10-02T02:10:26.247Z,15.40
2022-10-02T02:11:10.493Z,15.39
2022-10-02T02:11:55.396Z,15.38
2022-10-02T02:12:37.886Z,15.37
2022-10-02T02:13:16.425Z,15.36
2022-10-02T02:13:53.877Z,15.36
2022-10-02T02:14:30.284Z,15.36
2022-10-02T02:15:07.563Z,15.37
2022-10-02T02:15:49.238Z,15.36
2022-10-02T02:16:27.005Z,15.37
2022-10-02T02:17:11.513Z,15.35
2022-10-02T02:17:50.961Z,15.35
2022-10-02T02:18:29.202Z,15.34
2022-10-02T02:19:08.196Z,15.35
2022-10-02T02:19:45.612Z,15.35
2022-10-02T02:20:21.019Z,15.35
2022-10-02T02:21:01.760Z,15.35
2022-10-02T02:21:36.449Z,15.34
2022-10-02T02:22:16.775Z,15.35
2022-10-02T02:22:50.018Z,15.26
2022-10-02T02:23:26.826Z,15.28
2022-10-02T02:24:06.555Z,15.29
2022-10-02T02:24:42.852Z,15.27
2022-10-02T02:25:18.814Z,15.28
2022-10-02T02:25:57.153Z,15.28
2022-10-02T02:26:33.548Z,15.29
2022-10-02T02:27:07.869Z,15.29
2022-10-02T02:27:46.023Z,15.32
2022-10-02T02:28:21.730Z,15.33
2022-10-02T02:29:00.512Z,15.33
2022-10-02T02:29:38.721Z,15.31
2022-10-02T02:30:13.602Z,15.31
2022-10-02T02:30:49.657Z,15.33
2022-10-02T02:31:27.340Z,15.32
2022-10-02T02:32:03.152Z,15.32
2022-10-02T02:32:39.262Z,15.31
2022-10-02T02:33:19.204Z,15.33
2022-10-02T02:33:56.401Z,15.31
2022-10-02T02:34:31.991Z,15.32
2022-10-02T02:35:11.664Z,15.33
2022-10-02T02:35:47.963Z,15.32
2022-10-02T02:36:26.273Z,15.32
2022-10-02T02:37:07.584Z,15.32
2022-10-02T02:37:42.880Z,15.32
2022-10-02T02:38:21.775Z,15.35
2022-10-02T02:39:03.581Z,15.35
2022-10-02T02:39:42.534Z,15.34
2022-10-02T02:40:17.360Z,15.35
2022-10-02T02:40:53.430Z,15.35
2022-10-02T02:41:28.480Z,15.36
2022-10-02T02:42:07.010Z,15.37
2022-10-02T02:42:44.948Z,15.37
2022-10-02T02:43:21.892Z,15.36
2022-10-02T02:43:59.116Z,15.37
2022-10-02T02:44:39.178Z,15.38
2022-10-02T02:45:14.843Z,15.37
2022-10-02T02:45:52.103Z,15.38
2022-10-02T02:46:35.136Z,15.40
2022-10-02T02:47:12.932Z,15.38
2022-10-02T02:47:50.970Z,15.39
2022-10-02T02:48:29.371Z,15.39
2022-10-02T02:49:09.783Z,15.39
2022-10-02T02:49:47.633Z,15.32
2022-10-02T02:50:28.107Z,15.33
2022-10-02T02:51:08.542Z,15.35
2022-10-02T02:51:43.117Z,15.29
2022-10-02T02:52:22.861Z,15.31
2022-10-02T02:53:00.782Z,15.33
2022-10-02T02:53:38.836Z,15.35
2022-10-02T02:54:18.189Z,15.36
2022-10-02T02:54:54.637Z,15.36
2022-10-02T02:55:35.141Z,15.37
2022-10-02T02:56:13.518Z,15.36
2022-10-02T02:56:47.261Z,15.35
2022-10-02T02:57:31.443Z,15.37
2022-10-02T02:58:09.835Z,15.37
2022-10-02T02:58:47.532Z,15.38
2022-10-02T02:59:24.910Z,15.40
2022-10-02T03:00:01.370Z,15.40
2022-10-02T03:00:36.686Z,15.42
2022-10-02T03:01:09.013Z,15.43
2022-10-02T03:01:42.089Z,15.43
2022-10-02T03:02:16.833Z,15.43
2022-10-02T03:02:50.747Z,15.44
2022-10-02T03:03:22.918Z,15.45
2022-10-02T03:03:57.748Z,15.47
2022-10-02T03:04:29.867Z,15.47
2022-10-02T03:05:02.076Z,15.49
2022-10-02T03:05:38.908Z,15.51
2022-10-02T03:06:31.692Z,15.49
2022-10-02T03:07:05.356Z,15.46
2022-10-02T03:07:40.101Z,15.48
2022-10-02T03:08:18.852Z,15.49
2022-10-02T03:08:52.771Z,15.49
2022-10-02T03:09:30.127Z,15.51
2022-10-02T03:10:16.178Z,15.51
2022-10-02T03:11:01.320Z,15.52
2022-10-02T03:11:53.116Z,15.50
2022-10-02T03:12:41.571Z,15.49
2022-10-02T03:13:30.826Z,15.49
2022-10-02T03:14:12.781Z,15.49
2022-10-02T03:15:11.994Z,15.48
2022-10-02T03:15:55.648Z,15.48
2022-10-02T03:16:39.818Z,15.49
2022-10-02T03:17:24.811Z,15.49
2022-10-02T03:18:17.427Z,15.49
2022-10-02T03:19:05.275Z,15.46
2022-10-02T03:19:46.576Z,15.46
2022-10-02T03:20:31.694Z,15.47
2022-10-02T03:21:12.552Z,15.47
2022-10-02T03:21:57.994Z,15.48
2022-10-02T03:22:43.200Z,15.50
2022-10-02T03:23:23.065Z,15.49
2022-10-02T03:24:01.840Z,15.50
2022-10-02T03:24:44.088Z,15.51
2022-10-02T03:25:22.121Z,15.53
2022-10-02T03:26:00.522Z,15.52
2022-10-02T03:26:41.199Z,15.53
2022-10-02T03:27:19.442Z,15.52
2022-10-02T03:28:01.095Z,15.52
2022-10-02T03:28:56.732Z,15.52
2022-10-02T03:29:35.385Z,15.48
2022-10-02T03:30:12.720Z,15.50
2022-10-02T03:30:46.852Z,15.53
2022-10-02T03:31:21.026Z,15.54
2022-10-02T03:31:57.459Z,15.55
2022-10-02T03:32:32.270Z,15.55
2022-10-02T03:33:06.076Z,15.55
2022-10-02T03:33:41.497Z,15.56
2022-10-02T03:34:14.081Z,15.58
2022-10-02T03:34:48.110Z,15.58
2022-10-02T03:35:24.578Z,15.59
2022-10-02T03:35:57.125Z,15.60
2022-10-02T03:36:32.751Z,15.60
2022-10-02T03:37:05.378Z,15.62
2022-10-02T03:37:39.437Z,15.62
2022-10-02T03:38:16.343Z,15.61
2022-10-02T03:38:57.022Z,15.62
2022-10-02T03:39:40.874Z,15.57
2022-10-02T03:40:15.885Z,15.56
2022-10-02T03:40:48.074Z,15.55
2022-10-02T03:41:20.161Z,15.56
2022-10-02T03:41:54.890Z,15.56
2022-10-02T03:42:29.517Z,15.56
2022-10-02T03:43:07.302Z,15.58
2022-10-02T03:43:39.398Z,15.58
2022-10-02T03:44:11.490Z,15.58
2022-10-02T03:44:46.657Z,15.60
2022-10-02T03:45:39.021Z,15.58
2022-10-02T03:46:14.246Z,15.54
2022-10-02T03:46:46.430Z,15.55
2022-10-02T03:47:18.587Z,15.55
2022-10-02T03:47:53.257Z,15.57
2022-10-02T03:48:25.403Z,15.57
2022-10-02T03:48:57.553Z,15.57
2022-10-02T03:49:32.298Z,15.59
2022-10-02T03:50:05.187Z,15.59
2022-10-02T03:50:37.522Z,15.59
2022-10-02T03:51:12.172Z,15.60
2022-10-02T03:51:44.432Z,15.61
2022-10-02T03:52:21.463Z,15.61
2022-10-02T03:52:53.765Z,15.61
2022-10-02T03:53:31.002Z,15.63
2022-10-02T03:54:06.302Z,15.63
2022-10-02T03:54:38.665Z,15.64
2022-10-02T03:55:25.062Z,15.63
2022-10-02T03:56:06.273Z,15.60
2022-10-02T03:56:43.099Z,15.58
2022-10-02T03:57:20.162Z,15.59
2022-10-02T03:57:56.567Z,15.58
2022-10-02T03:58:33.224Z,15.58
2022-10-02T03:59:12.613Z,15.63
2022-10-02T03:59:53.810Z,15.58
2022-10-02T04:00:32.267Z,15.59
2022-10-02T04:01:10.951Z,15.61
2022-10-02T04:01:51.443Z,15.60
2022-10-02T04:02:32.030Z,15.61
2022-10-02T04:03:10.777Z,15.60
2022-10-02T04:03:50.041Z,15.60
2022-10-02T04:04:25.624Z,15.61
2022-10-02T04:05:07.259Z,15.61
2022-10-02T04:05:43.674Z,15.60
2022-10-02T04:06:23.671Z,15.59
2022-10-02T04:07:01.731Z,15.59
2022-10-02T04:07:38.699Z,15.59
2022-10-02T04:08:19.442Z,15.60
2022-10-02T04:08:58.406Z,15.57
2022-10-02T04:09:37.542Z,15.57
2022-10-02T04:10:29.822Z,15.54
2022-10-02T04:11:11.157Z,15.52
2022-10-02T04:11:48.448Z,15.51
2022-10-02T04:12:27.267Z,15.52
2022-10-02T04:13:10.283Z,15.52
2022-10-02T04:13:49.099Z,15.51
2022-10-02T04:14:28.513Z,15.51
2022-10-02T04:15:06.961Z,15.50
2022-10-02T04:15:53.922Z,15.50
2022-10-02T04:16:34.582Z,15.49
2022-10-02T04:17:13.690Z,15.49
2022-10-02T04:17:50.046Z,15.47
2022-10-02T04:18:30.737Z,15.47
2022-10-02T04:19:07.631Z,15.46
2022-10-02T04:19:42.966Z,15.44
2022-10-02T04:20:21.311Z,15.44
2022-10-02T04:20:58.530Z,15.45
2022-10-02T04:21:38.748Z,15.44
2022-10-02T04:22:21.323Z,15.44
2022-10-02T04:22:56.636Z,15.45
2022-10-02T04:23:34.469Z,15.46
2022-10-02T04:24:18.893Z,15.44
2022-10-02T04:24:57.620Z,15.44
2022-10-02T04:25:37.262Z,15.43
2022-10-02T04:26:17.776Z,15.44
2022-10-02T04:27:05.334Z,15.44
2022-10-02T04:27:40.872Z,15.44
2022-10-02T04:28:15.466Z,15.47
2022-10-02T04:28:59.805Z,15.48
2022-10-02T04:29:38.830Z,15.48
2022-10-02T04:30:13.067Z,15.48
2022-10-02T04:30:47.750Z,15.49
2022-10-02T04:31:19.984Z,15.50
2022-10-02T04:32:01.256Z,15.51
2022-10-02T04:32:37.923Z,15.50
2022-10-02T04:33:12.842Z,15.49
2022-10-02T04:33:44.951Z,15.51
2022-10-02T04:34:19.606Z,15.51
2022-10-02T04:34:52.358Z,15.52
2022-10-02T04:35:32.541Z,15.53
2022-10-02T04:36:15.662Z,15.51
2022-10-02T04:37:04.252Z,15.49
2022-10-02T04:38:02.507Z,15.48
2022-10-02T04:38:49.269Z,15.43
2022-10-02T04:39:50.677Z,15.42
2022-10-02T04:40:34.070Z,15.42
2022-10-02T04:41:22.824Z,15.41
2022-10-02T04:42:24.999Z,15.38
2022-10-02T04:43:13.257Z,15.37
2022-10-02T04:44:02.346Z,15.37
2022-10-02T04:44:57.192Z,15.39
2022-10-02T04:45:41.846Z,15.40
2022-10-02T04:46:25.854Z,15.40
2022-10-02T04:47:15.803Z,15.42
2022-10-02T04:48:16.013Z,15.41
2022-10-02T04:49:23.299Z,15.39
2022-10-02T04:50:08.746Z,15.42
2022-10-02T04:50:48.597Z,15.43
2022-10-02T04:51:37.233Z,15.46
2022-10-02T04:52:27.195Z,15.44
2022-10-02T04:53:21.985Z,15.43
2022-10-02T04:54:15.565Z,15.44
2022-10-02T04:55:04.725Z,15.47
2022-10-02T04:56:14.680Z,15.44
2022-10-02T04:57:05.460Z,15.46
2022-10-02T04:57:56.539Z,15.48
2022-10-02T04:58:48.441Z,15.50
2022-10-02T04:59:36.038Z,15.51
2022-10-02T05:00:14.662Z,15.53
2022-10-02T05:00:54.978Z,15.55
2022-10-02T05:01:31.874Z,15.50
2022-10-02T05:02:22.932Z,15.53
2022-10-02T05:03:17.282Z,15.53
2022-10-02T05:04:09.016Z,15.56
2022-10-02T05:05:00.730Z,15.56
2022-10-02T05:05:51.501Z,15.57
2022-10-02T05:06:41.999Z,15.58
2022-10-02T05:07:33.033Z,15.53
2022-10-02T05:08:24.928Z,15.54
2022-10-02T05:09:14.816Z,15.56
2022-10-02T05:10:01.924Z,15.57
2022-10-02T05:10:56.717Z,15.56
2022-10-02T05:11:50.262Z,15.56
2022-10-02T05:12:46.721Z,15.54
2022-10-02T05:13:34.929Z,15.56
2022-10-02T05:14:26.460Z,15.57
2022-10-02T05:15:16.927Z,15.58
2022-10-02T05:16:04.374Z,15.59
2022-10-02T05:16:56.333Z,15.60
2022-10-02T05:17:47.660Z,15.61
2022-10-02T05:18:37.316Z,15.60
2022-10-02T05:19:26.144Z,15.60
2022-10-02T05:20:19.098Z,15.61
2022-10-02T05:21:15.437Z,15.59
2022-10-02T05:22:22.347Z,15.57
2022-10-02T05:23:22.750Z,15.56
2022-10-02T05:24:09.706Z,15.55
2022-10-02T05:24:57.156Z,15.55
2022-10-02T05:26:06.540Z,15.55
2022-10-02T05:27:06.402Z,15.54
2022-10-02T05:27:56.740Z,15.55
2022-10-02T05:28:59.914Z,15.55
2022-10-02T05:29:55.931Z,15.56
2022-10-02T05:30:35.904Z,15.56
2022-10-02T05:31:20.854Z,15.58
2022-10-02T05:32:05.974Z,15.60
2022-10-02T05:33:02.123Z,15.59
2022-10-02T05:33:51.834Z,15.59
2022-10-02T05:34:40.914Z,15.60
2022-10-02T05:35:28.672Z,15.61
2022-10-02T05:36:24.792Z,15.60
2022-10-02T05:37:10.471Z,15.58
2022-10-02T05:37:56.476Z,15.56
2022-10-02T05:38:47.327Z,15.54
2022-10-02T05:39:28.593Z,15.53
2022-10-02T05:40:08.381Z,15.55
2022-10-02T05:40:49.061Z,15.54
2022-10-02T05:41:27.826Z,15.54
2022-10-02T05:42:08.947Z,15.51
2022-10-02T05:42:49.585Z,15.48
2022-10-02T05:43:33.350Z,15.46
2022-10-02T05:44:12.683Z,15.40
2022-10-02T05:44:53.502Z,15.39
2022-10-02T05:45:31.335Z,15.36
2022-10-02T05:46:11.184Z,15.34
2022-10-02T05:46:49.429Z,15.33
2022-10-02T05:47:28.277Z,15.31
2022-10-02T05:48:09.150Z,15.30
2022-10-02T05:48:45.173Z,15.30
2022-10-02T05:49:20.796Z,15.29
2022-10-02T05:50:01.692Z,15.31
2022-10-02T05:50:37.015Z,15.30
2022-10-02T05:51:16.668Z,15.31
2022-10-02T05:51:59.665Z,15.30
2022-10-02T05:52:38.321Z,15.30
2022-10-02T05:53:26.123Z,15.30
2022-10-02T05:54:04.863Z,15.29
2022-10-02T05:54:45.542Z,15.30
2022-10-02T05:55:26.449Z,15.27
2022-10-02T05:56:02.556Z,15.28
2022-10-02T05:56:42.786Z,15.28
2022-10-02T05:57:22.203Z,15.26
2022-10-02T05:58:04.297Z,15.25
2022-10-02T05:58:42.364Z,15.23
2022-10-02T05:59:22.935Z,15.23
2022-10-02T06:00:07.597Z,15.21
2022-10-02T06:00:52.170Z,15.17
2022-10-02T06:01:30.675Z,15.17
2022-10-02T06:02:14.492Z,15.18
2022-10-02T06:02:57.278Z,15.17
2022-10-02T06:03:38.884Z,15.16
2022-10-02T06:04:15.230Z,15.16
2022-10-02T06:04:57.383Z,15.16
2022-10-02T06:05:44.218Z,15.15
2022-10-02T06:06:18.624Z,15.13
2022-10-02T06:06:56.110Z,15.13
2022-10-02T06:07:29.490Z,15.11
2022-10-02T06:08:04.374Z,15.11
2022-10-02T06:08:44.494Z,15.12
2022-10-02T06:09:20.394Z,15.09
2022-10-02T06:09:59.428Z,15.09
2022-10-02T06:10:38.800Z,15.06
2022-10-02T06:11:17.961Z,15.03
2022-10-02T06:11:55.511Z,15.03
2022-10-02T06:12:36.550Z,15.02
2022-10-02T06:13:13.879Z,15.02
2022-10-02T06:13:53.559Z,15.01
2022-10-02T06:14:32.432Z,14.99
2022-10-02T06:15:08.567Z,14.99
2022-10-02T06:15:49.489Z,14.99
2022-10-02T06:16:27.381Z,14.98
2022-10-02T06:17:08.389Z,14.96
2022-10-02T06:17:47.986Z,14.95
2022-10-02T06:18:25.505Z,14.94
2022-10-02T06:19:03.206Z,14.96
2022-10-02T06:19:43.523Z,14.96
2022-10-02T06:20:19.835Z,14.89
2022-10-02T06:20:58.652Z,14.88
2022-10-02T06:21:36.414Z,14.89
2022-10-02T06:22:16.665Z,14.89
2022-10-02T06:22:54.092Z,14.89
2022-10-02T06:23:31.921Z,14.92
2022-10-02T06:24:13.890Z,14.91
2022-10-02T06:24:51.687Z,14.92
2022-10-02T06:25:33.260Z,14.92
2022-10-02T06:26:10.785Z,14.93
2022-10-02T06:26:51.379Z,14.96
2022-10-02T06:27:31.888Z,14.96
2022-10-02T06:28:17.090Z,14.97
2022-10-02T06:28:52.228Z,14.98
2022-10-02T06:29:31.574Z,15.01
2022-10-02T06:30:06.281Z,15.01
2022-10-02T06:30:42.860Z,15.05
2022-10-02T06:31:24.292Z,15.07
2022-10-02T06:32:12.662Z,15.07
2022-10-02T06:32:54.513Z,15.07
2022-10-02T06:33:30.942Z,15.08
2022-10-02T06:34:03.219Z,15.09
2022-10-02T06:34:38.118Z,15.10
2022-10-02T06:35:13.681Z,15.10
2022-10-02T06:36:16.823Z,15.09
2022-10-02T06:37:08.346Z,15.06
2022-10-02T06:37:56.782Z,15.02
2022-10-02T06:38:39.539Z,15.01
2022-10-02T06:39:35.441Z,15.00
2022-10-02T06:40:33.889Z,14.99
2022-10-02T06:41:20.570Z,14.99
2022-10-02T06:42:07.625Z,15.02
2022-10-02T06:42:51.026Z,15.02
2022-10-02T06:44:01.605Z,14.98
2022-10-02T06:44:40.753Z,14.98
2022-10-02T06:45:23.486Z,15.01
2022-10-02T06:46:08.405Z,15.03
2022-10-02T06:46:52.477Z,15.05
2022-10-02T06:47:42.901Z,15.07
2022-10-02T06:48:24.925Z,15.08
2022-10-02T06:49:04.931Z,15.11
2022-10-02T06:49:47.315Z,15.13
2022-10-02T06:50:35.593Z,15.15
2022-10-02T06:51:18.627Z,15.17
2022-10-02T06:52:02.033Z,15.20
2022-10-02T06:52:45.568Z,15.21
2022-10-02T06:53:45.334Z,15.23
2022-10-02T06:54:34.662Z,15.21
2022-10-02T06:55:31.231Z,15.22
2022-10-02T06:56:25.915Z,15.23
2022-10-02T06:57:14.203Z,15.25
2022-10-02T06:58:05.025Z,15.24
2022-10-02T06:58:53.202Z,15.24
2022-10-02T06:59:41.038Z,15.23
2022-10-02T07:00:19.526Z,15.20
2022-10-02T07:00:59.364Z,15.18
2022-10-02T07:01:46.980Z,15.15
2022-10-02T07:02:42.869Z,15.11
2022-10-02T07:03:37.835Z,15.10
2022-10-02T07:04:56.999Z,15.06
2022-10-02T07:05:53.432Z,15.07
2022-10-02T07:06:55.095Z,15.06
2022-10-02T07:07:40.335Z,15.09
2022-10-02T07:08:27.854Z,15.10
2022-10-02T07:09:35.037Z,15.10
2022-10-02T07:10:33.022Z,15.10
2022-10-02T07:11:16.043Z,15.14
2022-10-02T07:11:56.886Z,15.17
2022-10-02T07:12:56.823Z,15.18
2022-10-02T07:13:45.233Z,15.13
2022-10-02T07:14:33.528Z,15.13
2022-10-02T07:15:23.857Z,15.12
2022-10-02T07:16:19.700Z,15.09
2022-10-02T07:17:06.978Z,15.09
2022-10-02T07:17:57.421Z,15.09
2022-10-02T07:18:42.801Z,15.07
2022-10-02T07:19:40.949Z,15.06
2022-10-02T07:20:34.247Z,15.05
2022-10-02T07:21:17.612Z,15.07
2022-10-02T07:22:00.103Z,15.11
2022-10-02T07:22:45.717Z,15.13
2022-10-02T07:23:45.972Z,15.16
2022-10-02T07:24:31.218Z,15.16
2022-10-02T07:25:23.302Z,15.16
2022-10-02T07:26:10.667Z,15.16
2022-10-02T07:26:49.701Z,15.17
2022-10-02T07:27:29.965Z,15.17
2022-10-02T07:28:11.415Z,15.17
2022-10-02T07:28:50.841Z,15.15
2022-10-02T07:29:36.084Z,15.14
2022-10-02T07:30:11.971Z,15.13
2022-10-02T07:30:54.222Z,15.13
2022-10-02T07:31:41.841Z,15.12
2022-10-02T07:32:39.126Z,15.11
2022-10-02T07:33:30.090Z,15.09
2022-10-02T07:34:13.221Z,15.07
2022-10-02T07:34:56.222Z,15.08
2022-10-02T07:35:44.000Z,15.06
2022-10-02T07:36:29.484Z,15.06
2022-10-02T07:37:14.850Z,15.04
2022-10-02T07:38:01.735Z,15.02
2022-10-02T07:38:49.846Z,15.00
2022-10-02T07:39:35.935Z,14.99
2022-10-02T07:40:24.651Z,15.00
2022-10-02T07:41:17.023Z,15.00
2022-10-02T07:42:12.199Z,14.98
2022-10-02T07:43:10.243Z,14.98
2022-10-02T07:43:50.633Z,15.00
2022-10-02T07:44:33.006Z,14.95
2022-10-02T07:45:27.041Z,14.98
2022-10-02T07:46:16.205Z,14.99
2022-10-02T07:46:57.643Z,15.01
2022-10-02T07:47:46.412Z,15.03
2022-10-02T07:48:35.193Z,15.04
2022-10-02T07:49:20.653Z,15.02
2022-10-02T07:49:59.826Z,15.04
2022-10-02T07:50:42.668Z,15.05
2022-10-02T07:51:45.144Z,15.04
2022-10-02T07:52:27.958Z,15.04
2022-10-02T07:53:08.474Z,15.05
2022-10-02T07:53:49.857Z,15.07
2022-10-02T07:54:50.698Z,15.06
2022-10-02T07:55:24.042Z,15.06
2022-10-02T07:55:57.209Z,15.09
2022-10-02T07:56:33.489Z,15.12
2022-10-02T07:57:23.930Z,15.12
2022-10-02T07:58:06.026Z,15.12
2022-10-02T07:58:43.298Z,15.11
2022-10-02T07:59:17.714Z,15.13
2022-10-02T07:59:57.748Z,15.14
2022-10-02T08:00:34.486Z,15.13
2022-10-02T08:01:15.408Z,15.12
2022-10-02T08:01:50.483Z,15.10
2022-10-02T08:02:30.370Z,15.10
2022-10-02T08:03:10.764Z,15.08
2022-10-02T08:03:49.759Z,14.98
2022-10-02T08:04:36.818Z,14.98
2022-10-02T08:05:18.630Z,14.95
2022-10-02T08:05:56.409Z,14.94
2022-10-02T08:06:29.098Z,14.97
2022-10-02T08:07:03.010Z,14.93
2022-10-02T08:07:37.934Z,14.94
2022-10-02T08:08:18.483Z,14.93
2022-10-02T08:08:57.921Z,14.91
2022-10-02T08:09:35.419Z,14.88
2022-10-02T08:10:16.500Z,14.86
2022-10-02T08:10:53.812Z,14.89
2022-10-02T08:11:30.855Z,14.89
2022-10-02T08:12:14.654Z,14.89
2022-10-02T08:12:55.295Z,14.91
2022-10-02T08:13:34.950Z,14.93
2022-10-02T08:14:12.327Z,14.92
2022-10-02T08:14:46.630Z,14.90
2022-10-02T08:15:23.908Z,14.91
2022-10-02T08:15:56.563Z,14.92
2022-10-02T08:16:33.722Z,14.93
2022-10-02T08:17:14.459Z,14.92
2022-10-02T08:17:50.368Z,14.91
2022-10-02T08:18:35.288Z,14.93
2022-10-02T08:19:16.810Z,14.85
2022-10-02T08:19:51.778Z,14.83
2022-10-02T08:20:31.936Z,14.83
2022-10-02T08:21:08.916Z,14.78
2022-10-02T08:21:48.592Z,14.78
2022-10-02T08:22:26.129Z,14.76
2022-10-02T08:23:07.560Z,14.76
2022-10-02T08:23:44.095Z,14.77
2022-10-02T08:24:23.458Z,14.76
2022-10-02T08:24:59.078Z,14.77
2022-10-02T08:25:41.838Z,14.78
2022-10-02T08:26:19.403Z,14.76
2022-10-02T08:26:58.029Z,14.76
2022-10-02T08:27:53.943Z,14.74
2022-10-02T08:28:31.544Z,14.74
2022-10-02T08:29:12.221Z,14.75
2022-10-02T08:29:49.944Z,14.77
2022-10-02T08:30:22.139Z,14.77
2022-10-02T08:30:56.825Z,14.78
2022-10-02T08:31:30.056Z,14.78
2022-10-02T08:32:04.983Z,14.78
2022-10-02T08:32:37.497Z,14.82
2022-10-02T08:33:15.807Z,14.84
2022-10-02T08:33:50.458Z,14.83
2022-10-02T08:34:25.778Z,14.85
2022-10-02T08:34:58.242Z,14.87
2022-10-02T08:35:44.201Z,14.87
2022-10-02T08:37:01.466Z,14.86
2022-10-02T08:37:45.262Z,14.89
2022-10-02T08:38:35.456Z,14.94
2022-10-02T08:39:24.084Z,14.96
2022-10-02T08:40:38.520Z,15.00
2022-10-02T08:41:55.570Z,14.99
2022-10-02T08:42:57.562Z,15.01
2022-10-02T08:44:03.044Z,15.06
2022-10-02T08:45:09.004Z,15.09
2022-10-02T08:46:10.848Z,15.16
2022-10-02T08:47:10.053Z,15.22
2022-10-02T08:48:22.704Z,15.24
2022-10-02T08:49:33.820Z,15.31
2022-10-02T08:50:50.827Z,15.36
2022-10-02T08:51:53.277Z,15.46
2022-10-02T08:53:03.907Z,15.57
2022-10-02T08:54:29.156Z,15.58
2022-10-02T08:55:26.346Z,15.55
2022-10-02T08:56:20.662Z,15.53
2022-10-02T08:57:31.267Z,15.53
2022-10-02T08:58:44.037Z,15.47
2022-10-02T08:59:58.955Z,15.39
2022-10-02T09:00:45.932Z,15.35
2022-10-02T09:01:43.348Z,15.36
2022-10-02T09:02:46.155Z,15.34
2022-10-02T09:04:01.069Z,15.31
2022-10-02T09:05:12.303Z,15.30
2022-10-02T09:06:22.710Z,15.25
2022-10-02T09:07:30.959Z,15.24
2022-10-02T09:08:45.185Z,15.20
2022-10-02T09:10:01.617Z,15.20